createdAt,value
2018-08-11T00:02:49.686Z,101698.42
2018-08-11T00:06:14.185Z,101718.15
2018-08-11T00:09:38.618Z,101727.47
2018-08-11T00:13:03.083Z,101718.81
2018-08-11T00:16:27.540Z,101731.59
2018-08-11T00:19:51.982Z,101733.57
2018-08-11T00:23:16.428Z,101734.22
2018-08-11T00:26:40.916Z,101740.45
2018-08-11T00:30:10.608Z,101750.86
2018-08-11T00:33:35.074Z,101767.92
2018-08-11T00:36:59.532Z,101766.80
2018-08-11T00:40:24.027Z,101790.66
2018-08-11T00:43:48.460Z,101808.49
2018-08-11T00:47:12.893Z,101823.92
2018-08-11T00:50:37.561Z,101820.98
2018-08-11T00:54:02.087Z,101822.89
2018-08-11T00:57:26.566Z,101808.55
2018-08-11T01:00:51.065Z,101814.38
2018-08-11T01:04:15.518Z,101824.63
2018-08-11T01:07:40.557Z,101827.52
2018-08-11T01:11:05.114Z,101826.43
2018-08-11T01:14:29.566Z,101829.36
2018-08-11T01:17:54.033Z,101823.70
2018-08-11T01:21:18.502Z,101811.56
2018-08-11T01:24:42.915Z,101789.97
2018-08-11T01:28:07.434Z,101768.86
2018-08-11T01:31:31.857Z,101773.41
2018-08-11T01:34:56.325Z,101783.08
2018-08-11T01:38:20.765Z,101791.98
2018-08-11T01:41:45.216Z,101788.00
2018-08-11T01:45:11.865Z,101773.16
2018-08-11T01:48:36.365Z,101765.09
2018-08-11T01:52:00.908Z,101764.58
2018-08-11T01:55:25.336Z,101781.20
2018-08-11T01:58:49.773Z,101777.91
2018-08-11T02:02:14.292Z,101773.91
2018-08-11T02:05:38.844Z,101779.84
2018-08-11T02:09:03.398Z,101787.17
2018-08-11T02:12:27.872Z,101795.38
2018-08-11T02:15:52.383Z,101794.22
2018-08-11T02:19:16.873Z,101789.27
2018-08-11T02:22:42.051Z,101787.28
2018-08-11T02:26:06.634Z,101790.13
2018-08-11T02:29:31.173Z,101795.38
2018-08-11T02:32:55.591Z,101794.70
2018-08-11T02:36:20.041Z,101792.18
2018-08-11T02:39:44.463Z,101785.86
2018-08-11T02:43:08.921Z,101793.17
2018-08-11T02:46:33.351Z,101785.30
2018-08-11T02:49:57.798Z,101784.19
2018-08-11T02:53:22.207Z,101792.77
2018-08-11T02:56:46.587Z,101800.34
2018-08-11T03:00:12.667Z,101806.13
2018-08-11T03:03:37.078Z,101803.11
2018-08-11T03:07:01.540Z,101808.28
2018-08-11T03:10:26.042Z,101809.94
2018-08-11T03:13:50.470Z,101816.08
2018-08-11T03:17:21.102Z,101822.42
2018-08-11T03:20:45.509Z,101825.80
2018-08-11T03:24:10.314Z,101826.08
2018-08-11T03:27:34.826Z,101826.27
2018-08-11T03:30:59.267Z,101829.53
2018-08-11T03:34:23.663Z,101829.75
2018-08-11T03:37:48.075Z,101833.44
2018-08-11T03:41:12.525Z,101835.20
2018-08-11T03:44:36.926Z,101842.34
2018-08-11T03:48:01.332Z,101840.47
2018-08-11T03:51:25.791Z,101846.19
2018-08-11T03:54:50.275Z,101844.98
2018-08-11T03:58:14.742Z,101849.52
2018-08-11T04:01:39.185Z,101850.50
2018-08-11T04:05:03.634Z,101849.52
2018-08-11T04:08:28.077Z,101851.25
2018-08-11T04:11:52.548Z,101854.23
2018-08-11T04:15:16.977Z,101855.97
2018-08-11T04:18:41.395Z,101862.34
2018-08-11T04:22:05.835Z,101865.11
2018-08-11T04:25:30.236Z,101869.41
2018-08-11T04:28:54.656Z,101874.95
2018-08-11T04:32:19.091Z,101870.42
2018-08-11T04:35:43.683Z,101877.89
2018-08-11T04:39:09.745Z,101880.95
2018-08-11T04:42:34.151Z,101881.89
2018-08-11T04:45:58.586Z,101888.34
2018-08-11T04:49:22.993Z,101893.10
2018-08-11T04:52:47.408Z,101890.94
2018-08-11T04:56:11.823Z,101899.44
2018-08-11T04:59:42.883Z,101898.73
2018-08-11T05:03:07.346Z,101905.17
2018-08-11T05:06:31.809Z,101907.24
2018-08-11T05:09:56.231Z,101918.37
2018-08-11T05:13:20.629Z,101925.88
2018-08-11T05:16:45.068Z,101930.69
2018-08-11T05:20:09.520Z,101931.68
2018-08-11T05:23:33.928Z,101935.25
2018-08-11T05:26:58.335Z,101930.06
2018-08-11T05:30:22.820Z,101934.82
2018-08-11T05:33:47.364Z,101938.11
2018-08-11T05:37:11.895Z,101938.75
2018-08-11T05:40:36.369Z,101940.75
2018-08-11T05:44:01.185Z,101947.40
2018-08-11T05:47:25.688Z,101943.96
2018-08-11T05:50:50.278Z,101942.33
2018-08-11T05:54:14.748Z,101960.64
2018-08-11T05:57:39.273Z,101955.64
2018-08-11T06:01:03.762Z,101958.91
2018-08-11T06:04:28.236Z,101957.44
2018-08-11T06:07:52.751Z,101970.17
2018-08-11T06:11:18.297Z,101971.45
2018-08-11T06:14:44.894Z,101966.88
2018-08-11T06:18:09.370Z,101980.58
2018-08-11T06:21:34.318Z,101984.17
2018-08-11T06:24:58.973Z,101984.77
2018-08-11T06:28:24.612Z,101990.23
2018-08-11T06:31:49.267Z,101992.44
2018-08-11T06:35:14.777Z,101999.17
2018-08-11T06:38:39.214Z,101998.45
2018-08-11T06:42:03.637Z,101999.96
2018-08-11T06:45:28.031Z,101992.78
2018-08-11T06:48:52.435Z,101999.55
2018-08-11T06:52:16.979Z,102001.52
2018-08-11T06:55:42.169Z,102002.08
2018-08-11T06:59:06.564Z,102006.73
2018-08-11T07:02:30.977Z,102012.77
2018-08-11T07:05:55.479Z,102011.07
2018-08-11T07:09:20.081Z,102008.76
2018-08-11T07:12:44.548Z,102019.47
2018-08-11T07:16:09.324Z,102015.03
2018-08-11T07:19:33.712Z,102018.92
2018-08-11T07:22:58.106Z,102017.30
2018-08-11T07:26:22.721Z,102020.12
2018-08-11T07:29:47.100Z,102028.59
2018-08-11T07:33:11.511Z,102030.16
2018-08-11T07:36:36.038Z,102037.14
2018-08-11T07:40:00.446Z,102043.18
2018-08-11T07:43:24.931Z,102041.07
2018-08-11T07:46:49.315Z,102043.88
2018-08-11T07:50:13.746Z,102050.53
2018-08-11T07:53:38.178Z,102042.59
2018-08-11T07:57:02.596Z,102041.95
2018-08-11T08:00:26.996Z,102051.69
2018-08-11T08:03:51.578Z,102050.02
2018-08-11T08:07:15.995Z,102063.53
2018-08-11T08:10:40.439Z,102070.12
2018-08-11T08:14:04.955Z,102064.67
2018-08-11T08:17:29.422Z,102068.56
2018-08-11T08:20:53.816Z,102066.40
2018-08-11T08:24:18.289Z,102065.27
2018-08-11T08:27:42.700Z,102066.73
2018-08-11T08:31:07.156Z,102062.06
2018-08-11T08:34:31.578Z,102057.34
2018-08-11T08:37:55.956Z,102054.75
2018-08-11T08:41:20.434Z,102056.13
2018-08-11T08:44:44.915Z,102041.20
2018-08-11T08:48:09.349Z,102053.45
2018-08-11T08:51:33.742Z,102060.27
2018-08-11T08:54:58.169Z,102054.52
2018-08-11T08:58:22.563Z,102055.81
2018-08-11T09:01:47.088Z,102056.89
2018-08-11T09:05:11.529Z,102053.84
2018-08-11T09:08:36.109Z,102055.14
2018-08-11T09:12:00.631Z,102057.59
2018-08-11T09:15:25.028Z,102059.91
2018-08-11T09:18:49.429Z,102050.68
2018-08-11T09:22:13.870Z,102052.40
2018-08-11T09:25:38.268Z,102056.48
2018-08-11T09:29:02.721Z,102056.94
2018-08-11T09:32:27.247Z,102059.22
2018-08-11T09:35:51.664Z,102056.41
2018-08-11T09:39:16.096Z,102060.73
2018-08-11T09:42:40.534Z,102059.11
2018-08-11T09:46:04.943Z,102063.35
2018-08-11T09:49:29.374Z,102065.18
2018-08-11T09:52:53.819Z,102064.46
2018-08-11T09:56:18.303Z,102063.22
2018-08-11T09:59:42.751Z,102059.65
2018-08-11T10:03:07.226Z,102053.87
2018-08-11T10:06:31.632Z,102056.65
2018-08-11T10:09:56.040Z,102047.48
2018-08-11T10:13:20.464Z,102051.46
2018-08-11T10:16:45.007Z,102052.17
2018-08-11T10:20:09.439Z,102056.08
2018-08-11T10:23:33.837Z,102052.11
2018-08-11T10:26:58.302Z,102052.61
2018-08-11T10:30:22.713Z,102057.72
2018-08-11T10:33:47.412Z,102058.80
2018-08-11T10:37:11.867Z,102050.06
2018-08-11T10:40:36.303Z,102063.66
2018-08-11T10:44:00.745Z,102060.52
2018-08-11T10:47:25.164Z,102053.58
2018-08-11T10:50:49.841Z,102051.34
2018-08-11T10:54:14.276Z,102053.91
2018-08-11T10:57:38.970Z,102052.54
2018-08-11T11:01:03.437Z,102041.14
2018-08-11T11:04:27.977Z,102053.22
2018-08-11T11:07:52.406Z,102054.83
2018-08-11T11:11:16.865Z,102057.18
2018-08-11T11:14:41.302Z,102055.64
2018-08-11T11:18:06.022Z,102065.02
2018-08-11T11:21:30.456Z,102060.02
2018-08-11T11:24:54.951Z,102050.13
2018-08-11T11:28:19.422Z,102053.19
2018-08-11T11:31:43.888Z,102053.58
2018-08-11T11:35:08.366Z,102055.30
2018-08-11T11:38:32.850Z,102051.86
2018-08-11T11:41:57.330Z,102039.66
2018-08-11T11:45:21.780Z,102045.47
2018-08-11T11:48:46.239Z,102048.84
2018-08-11T11:52:10.677Z,102044.11
2018-08-11T11:55:35.148Z,102049.48
2018-08-11T11:58:59.528Z,102046.60
2018-08-11T12:02:23.967Z,102040.12
2018-08-11T12:05:48.518Z,102046.77
2018-08-11T12:09:12.993Z,102045.66
2018-08-11T12:12:37.416Z,102039.42
2018-08-11T12:16:01.937Z,102035.72
2018-08-11T12:19:26.474Z,102039.22
2018-08-11T12:22:50.945Z,102039.03
2018-08-11T12:26:15.491Z,102046.48
2018-08-11T12:29:40.019Z,102037.40
2018-08-11T12:33:04.471Z,102042.28
2018-08-11T12:36:28.975Z,102040.77
2018-08-11T12:39:53.488Z,102039.79
2018-08-11T12:43:17.959Z,102038.19
2018-08-11T12:46:42.585Z,102038.58
2018-08-11T12:50:07.029Z,102049.65
2018-08-11T12:53:31.440Z,102028.69
2018-08-11T12:56:55.900Z,102030.17
2018-08-11T13:00:21.049Z,102022.84
2018-08-11T13:03:46.527Z,102020.34
2018-08-11T13:07:11.277Z,102017.27
2018-08-11T13:10:35.720Z,102019.75
2018-08-11T13:14:00.305Z,102007.92
2018-08-11T13:17:24.905Z,102017.84
2018-08-11T13:20:49.473Z,102017.36
2018-08-11T13:24:13.937Z,102014.82
2018-08-11T13:27:38.427Z,102006.61
2018-08-11T13:31:02.976Z,102009.91
2018-08-11T13:34:27.450Z,102007.02
2018-08-11T13:37:51.886Z,102005.36
2018-08-11T13:41:16.327Z,101999.49
2018-08-11T13:44:40.930Z,102002.66
2018-08-11T13:48:05.643Z,101997.58
2018-08-11T13:51:30.047Z,101993.30
2018-08-11T13:54:54.451Z,101989.37
2018-08-11T13:58:19.077Z,101982.48
2018-08-11T14:01:43.569Z,101980.87
2018-08-11T14:05:08.048Z,101990.92
2018-08-11T14:08:32.542Z,101977.56
2018-08-11T14:11:57.022Z,101972.39
2018-08-11T14:15:21.441Z,101976.00
2018-08-11T14:18:45.857Z,101974.66
2018-08-11T14:22:10.354Z,101976.66
2018-08-11T14:25:34.755Z,101977.11
2018-08-11T14:28:59.275Z,101980.48
2018-08-11T14:32:23.787Z,101973.82
2018-08-11T14:35:48.225Z,101980.69
2018-08-11T14:39:12.778Z,101981.36
2018-08-11T14:42:37.251Z,101980.73
2018-08-11T14:46:01.740Z,101977.70
2018-08-11T14:49:26.198Z,101981.09
2018-08-11T14:52:50.638Z,101977.16
2018-08-11T14:56:15.114Z,101971.72
2018-08-11T14:59:39.590Z,101977.36
2018-08-11T15:03:05.212Z,101970.84
2018-08-11T15:06:29.731Z,101972.70
2018-08-11T15:09:54.260Z,101960.83
2018-08-11T15:13:18.660Z,101955.73
2018-08-11T15:16:43.134Z,101947.69
2018-08-11T15:20:08.384Z,101962.11
2018-08-11T15:23:32.842Z,101954.71
2018-08-11T15:26:57.335Z,101961.06
2018-08-11T15:30:21.766Z,101956.92
2018-08-11T15:33:46.179Z,101964.77
2018-08-11T15:37:10.592Z,101964.94
2018-08-11T15:40:35.007Z,101966.89
2018-08-11T15:43:59.459Z,101961.36
2018-08-11T15:47:23.895Z,101964.66
2018-08-11T15:50:48.349Z,101965.07
2018-08-11T15:54:12.788Z,101966.47
2018-08-11T15:57:37.228Z,101964.25
2018-08-11T16:01:01.636Z,101957.48
2018-08-11T16:04:26.079Z,101951.11
2018-08-11T16:07:50.456Z,101949.80
2018-08-11T16:11:14.861Z,101949.88
2018-08-11T16:14:39.284Z,101948.73
2018-08-11T16:18:03.720Z,101950.28
2018-08-11T16:21:28.154Z,101946.33
2018-08-11T16:24:52.595Z,101940.88
2018-08-11T16:28:17.099Z,101942.23
2018-08-11T16:31:41.603Z,101944.41
2018-08-11T16:35:06.299Z,101951.80
2018-08-11T16:38:30.832Z,101952.33
2018-08-11T16:41:55.381Z,101952.52
2018-08-11T16:45:19.879Z,101953.27
2018-08-11T16:48:44.340Z,101955.98
2018-08-11T16:52:08.954Z,101947.32
2018-08-11T16:55:33.445Z,101943.01
2018-08-11T16:58:57.967Z,101947.05
2018-08-11T17:02:22.420Z,101948.92
2018-08-11T17:05:46.951Z,101944.24
2018-08-11T17:09:12.484Z,101942.28
2018-08-11T17:12:37.272Z,101934.90
2018-08-11T17:16:01.694Z,101937.05
2018-08-11T17:19:26.226Z,101938.29
2018-08-11T17:22:50.693Z,101935.82
2018-08-11T17:26:15.138Z,101929.64
2018-08-11T17:29:39.615Z,101925.24
2018-08-11T17:33:04.037Z,101926.44
2018-08-11T17:36:28.522Z,101921.95
2018-08-11T17:39:53.029Z,101921.98
2018-08-11T17:43:17.554Z,101918.88
2018-08-11T17:46:42.103Z,101920.29
2018-08-11T17:50:07.624Z,101915.23
2018-08-11T17:53:32.142Z,101916.95
2018-08-11T17:56:56.686Z,101922.65
2018-08-11T18:00:21.123Z,101926.30
2018-08-11T18:03:45.623Z,101927.44
2018-08-11T18:07:10.053Z,101922.36
2018-08-11T18:10:34.527Z,101923.99
2018-08-11T18:13:58.932Z,101909.48
2018-08-11T18:17:23.435Z,101913.48
2018-08-11T18:20:47.839Z,101911.28
2018-08-11T18:24:12.231Z,101919.56
2018-08-11T18:27:36.893Z,101908.22
2018-08-11T18:31:01.280Z,101908.22
2018-08-11T18:34:25.722Z,101910.05
2018-08-11T18:37:50.139Z,101912.30
2018-08-11T18:41:14.538Z,101918.22
2018-08-11T18:44:38.928Z,101922.88
2018-08-11T18:48:03.342Z,101911.98
2018-08-11T18:51:27.733Z,101916.88
2018-08-11T18:54:52.173Z,101913.77
2018-08-11T18:58:17.480Z,101914.80
2018-08-11T19:01:41.914Z,101913.76
2018-08-11T19:05:06.482Z,101911.09
2018-08-11T19:08:30.910Z,101913.58
2018-08-11T19:11:55.336Z,101925.14
2018-08-11T19:15:19.762Z,101920.58
2018-08-11T19:18:44.198Z,101919.41
2018-08-11T19:22:08.750Z,101916.63
2018-08-11T19:25:33.305Z,101925.39
2018-08-11T19:28:57.611Z,101921.11
2018-08-11T19:32:22.048Z,101926.28
2018-08-11T19:35:46.607Z,101917.00
2018-08-11T19:39:12.334Z,101918.14
2018-08-11T19:42:36.784Z,101921.39
2018-08-11T19:46:01.247Z,101927.20
2018-08-11T19:49:25.669Z,101921.67
2018-08-11T19:52:50.129Z,101925.11
2018-08-11T19:56:14.619Z,101923.54
2018-08-11T19:59:39.121Z,101916.98
2018-08-11T20:03:03.583Z,101919.72
2018-08-11T20:06:28.054Z,101919.66
2018-08-11T20:09:52.540Z,101925.29
2018-08-11T20:13:16.952Z,101923.17
2018-08-11T20:16:41.386Z,101916.61
2018-08-11T20:20:07.305Z,101914.59
2018-08-11T20:23:31.785Z,101908.42
2018-08-11T20:26:56.236Z,101914.13
2018-08-11T20:30:20.708Z,101913.48
2018-08-11T20:33:45.115Z,101912.88
2018-08-11T20:37:10.287Z,101916.89
2018-08-11T20:40:34.714Z,101913.86
2018-08-11T20:43:59.227Z,101916.31
2018-08-11T20:47:23.671Z,101913.58
2018-08-11T20:50:48.040Z,101909.84
2018-08-11T20:54:12.463Z,101916.41
2018-08-11T20:57:36.889Z,101913.94
2018-08-11T21:01:01.392Z,101909.77
2018-08-11T21:04:25.849Z,101912.22
2018-08-11T21:07:50.313Z,101906.05
2018-08-11T21:11:14.799Z,101905.79
2018-08-11T21:14:39.254Z,101905.05
2018-08-11T21:18:03.672Z,101908.03
2018-08-11T21:21:28.139Z,101907.66
2018-08-11T21:24:52.587Z,101906.77
2018-08-11T21:28:17.016Z,101909.14
2018-08-11T21:31:41.562Z,101900.80
2018-08-11T21:35:06.442Z,101901.45
2018-08-11T21:38:30.899Z,101905.02
2018-08-11T21:41:55.476Z,101899.88
2018-08-11T21:45:19.988Z,101898.03
2018-08-11T21:48:44.438Z,101895.86
2018-08-11T21:52:08.962Z,101898.27
2018-08-11T21:55:33.492Z,101897.91
2018-08-11T21:58:57.945Z,101893.44
2018-08-11T22:02:22.416Z,101897.11
2018-08-11T22:05:46.825Z,101896.41
2018-08-11T22:09:13.435Z,101890.54
2018-08-11T22:12:37.911Z,101887.67
2018-08-11T22:16:04.077Z,101897.38
2018-08-11T22:19:28.576Z,101889.70
2018-08-11T22:22:53.037Z,101880.78
2018-08-11T22:26:17.685Z,101884.66
2018-08-11T22:29:42.246Z,101877.08
2018-08-11T22:33:06.795Z,101877.32
2018-08-11T22:36:31.333Z,101878.11
2018-08-11T22:39:55.877Z,101879.48
2018-08-11T22:43:20.580Z,101876.51
2018-08-11T22:46:45.077Z,101872.66
2018-08-11T22:50:12.320Z,101870.39
2018-08-11T22:53:36.782Z,101862.51
2018-08-11T22:57:01.287Z,101868.83
2018-08-11T23:00:25.801Z,101866.55
2018-08-11T23:03:50.284Z,101857.94
2018-08-11T23:07:14.772Z,101858.31
2018-08-11T23:10:39.206Z,101853.70
2018-08-11T23:14:03.806Z,101843.66
2018-08-11T23:17:28.335Z,101848.73
2018-08-11T23:20:52.828Z,101838.61
2018-08-11T23:24:17.304Z,101842.61
2018-08-11T23:27:41.821Z,101837.30
2018-08-11T23:31:06.238Z,101833.00
2018-08-11T23:34:30.756Z,101824.37
2018-08-11T23:37:55.224Z,101823.08
2018-08-11T23:41:19.692Z,101820.36
2018-08-11T23:44:44.197Z,101819.19
2018-08-11T23:48:08.750Z,101818.58
2018-08-11T23:51:33.220Z,101816.97
2018-08-11T23:54:57.693Z,101815.93
2018-08-11T23:58:22.170Z,101811.36
